KBTM

Bert Mooney Airport

Butte, Montana, USA
METAR KBTM 190453Z AUTO 04003KT 10SM CLR 12/02 A3005 RMK AO2 SLP143 T01170022
Observed Flight Rules
Sep-19 @ 04:53 UTC (30 minutes ago) Visual Flight Rules
Wind Visibility Clouds
40° at 3 knots 10 miles
  • Clear skies
Temperatures Readings
Current 12°C / 54°F
Dewpoint 2°C / 36°F
Humidity 51%
Altimeter 30.05" Hg
Pressure 1014.3 hPa
Elevation 1688
METAR KBTM 190453Z AUTO 04003KT 10SM CLR 12/02 A3005 RMK AO2 SLP143 T01170022
Observed Flight Rules
Sep-19 @ 04:53 UTC
(30 minutes ago)
VFR
Wind Visibility
40° at 3 knots 10 miles
Clouds
  • Clear skies
Temperature Dewpoint
12°C / 54°F 2°C / 36°F
Humidity Altimeter Pressure
51% 30.05" Hg 1014.3 hPa